sensor_id;sensor_type;location;lat;lon;timestamp;pressure;altitude;pressure_sealevel;temperature;humidity
48790;BME280;41718;51.980;5.734;2023-03-14T00:02:01;98755.56;;;10.62;100.00
48790;BME280;41718;51.980;5.734;2023-03-14T00:07:03;98770.44;;;10.00;100.00
48790;BME280;41718;51.980;5.734;2023-03-14T00:12:05;98774.69;;;9.47;100.00
48790;BME280;41718;51.980;5.734;2023-03-14T00:17:08;98796.03;;;9.58;100.00
48790;BME280;41718;51.980;5.734;2023-03-14T00:22:10;98784.94;;;9.53;100.00
48790;BME280;41718;51.980;5.734;2023-03-14T00:27:11;98763.84;;;9.22;100.00
48790;BME280;41718;51.980;5.734;2023-03-14T00:32:13;98769.03;;;9.20;100.00
48790;BME280;41718;51.980;5.734;2023-03-14T00:37:15;98769.91;;;9.21;100.00
48790;BME280;41718;51.980;5.734;2023-03-14T00:42:16;98780.09;;;9.28;100.00
48790;BME280;41718;51.980;5.734;2023-03-14T00:47:18;98779.22;;;9.29;100.00
48790;BME280;41718;51.980;5.734;2023-03-14T00:52:19;98792.16;;;9.28;100.00
48790;BME280;41718;51.980;5.734;2023-03-14T00:57:21;98803.47;;;9.19;100.00
48790;BME280;41718;51.980;5.734;2023-03-14T01:02:22;98784.69;;;9.08;100.00
48790;BME280;41718;51.980;5.734;2023-03-14T01:07:23;98781.34;;;8.98;100.00
48790;BME280;41718;51.980;5.734;2023-03-14T01:12:27;98788.31;;;8.92;100.00
48790;BME280;41718;51.980;5.734;2023-03-14T01:17:28;98787.53;;;8.87;100.00
48790;BME280;41718;51.980;5.734;2023-03-14T01:22:30;98790.13;;;8.84;100.00
48790;BME280;41718;51.980;5.734;2023-03-14T01:27:32;98796.19;;;8.78;100.00
48790;BME280;41718;51.980;5.734;2023-03-14T01:32:34;98793.66;;;8.75;100.00
48790;BME280;41718;51.980;5.734;2023-03-14T01:37:35;98809.22;;;8.66;100.00
48790;BME280;41718;51.980;5.734;2023-03-14T01:42:44;98819.63;;;8.58;100.00
48790;BME280;41718;51.980;5.734;2023-03-14T01:47:46;98816.25;;;8.52;100.00
48790;BME280;41718;51.980;5.734;2023-03-14T01:52:49;98818.91;;;8.44;100.00
48790;BME280;41718;51.980;5.734;2023-03-14T01:57:58;98825.84;;;8.37;100.00
48790;BME280;41718;51.980;5.734;2023-03-14T02:03:12;98823.41;;;8.19;100.00
48790;BME280;41718;51.980;5.734;2023-03-14T02:08:20;98811.41;;;8.13;100.00
48790;BME280;41718;51.980;5.734;2023-03-14T02:13:23;98814.03;;;8.07;100.00
48790;BME280;41718;51.980;5.734;2023-03-14T02:18:25;98812.34;;;8.03;100.00
48790;BME280;41718;51.980;5.734;2023-03-14T02:23:34;98813.22;;;8.02;100.00
48790;BME280;41718;51.980;5.734;2023-03-14T02:28:40;98826.97;;;8.00;100.00
48790;BME280;41718;51.980;5.734;2023-03-14T02:33:41;98805.56;;;7.93;100.00
48790;BME280;41718;51.980;5.734;2023-03-14T02:38:51;98796.97;;;7.94;100.00
48790;BME280;41718;51.980;5.734;2023-03-14T02:43:56;98787.59;;;7.90;100.00
48790;BME280;41718;51.980;5.734;2023-03-14T02:49:02;98784.97;;;7.94;100.00
48790;BME280;41718;51.980;5.734;2023-03-14T02:54:04;98771.28;;;7.89;100.00
48790;BME280;41718;51.980;5.734;2023-03-14T02:59:05;98769.53;;;7.93;100.00
48790;BME280;41718;51.980;5.734;2023-03-14T03:04:07;98769.47;;;8.02;100.00
48790;BME280;41718;51.980;5.734;2023-03-14T03:09:09;98767.72;;;8.03;100.00
48790;BME280;41718;51.980;5.734;2023-03-14T03:14:10;98753.97;;;8.04;100.00
48790;BME280;41718;51.980;5.734;2023-03-14T03:19:14;98753.09;;;8.08;100.00
48790;BME280;41718;51.980;5.734;2023-03-14T03:24:17;98753.06;;;8.12;100.00
48790;BME280;41718;51.980;5.734;2023-03-14T03:29:19;98747.91;;;8.11;100.00
48790;BME280;41718;51.980;5.734;2023-03-14T03:34:20;98743.59;;;8.14;100.00
48790;BME280;41718;51.980;5.734;2023-03-14T03:39:22;98746.09;;;8.20;100.00
48790;BME280;41718;51.980;5.734;2023-03-14T03:44:23;98731.50;;;8.22;100.00
48790;BME280;41718;51.980;5.734;2023-03-14T03:49:28;98733.97;;;8.32;100.00
48790;BME280;41718;51.980;5.734;2023-03-14T03:54:30;98747.69;;;8.37;100.00
48790;BME280;41718;51.980;5.734;2023-03-14T03:59:32;98744.25;;;8.38;100.00
48790;BME280;41718;51.980;5.734;2023-03-14T04:04:33;98738.13;;;8.48;100.00
48790;BME280;41718;51.980;5.734;2023-03-14T04:09:39;98738.94;;;8.50;100.00
48790;BME280;41718;51.980;5.734;2023-03-14T04:14:41;98732.03;;;8.55;100.00
48790;BME280;41718;51.980;5.734;2023-03-14T04:19:42;98726.94;;;8.49;100.00
48790;BME280;41718;51.980;5.734;2023-03-14T04:24:44;98721.72;;;8.55;100.00
48790;BME280;41718;51.980;5.734;2023-03-14T04:29:45;98737.22;;;8.52;100.00
48790;BME280;41718;51.980;5.734;2023-03-14T04:34:47;98738.88;;;8.56;100.00
48790;BME280;41718;51.980;5.734;2023-03-14T04:39:48;98724.38;;;8.49;100.00
48790;BME280;41718;51.980;5.734;2023-03-14T04:44:50;98734.72;;;8.44;100.00
48790;BME280;41718;51.980;5.734;2023-03-14T04:49:51;98734.63;;;8.54;100.00
48790;BME280;41718;51.980;5.734;2023-03-14T04:54:52;98732.16;;;8.43;100.00
48790;BME280;41718;51.980;5.734;2023-03-14T04:59:54;98726.13;;;8.47;100.00
48790;BME280;41718;51.980;5.734;2023-03-14T05:04:56;98727.88;;;8.42;100.00
48790;BME280;41718;51.980;5.734;2023-03-14T05:09:57;98702.94;;;8.47;100.00
48790;BME280;41718;51.980;5.734;2023-03-14T05:14:59;98704.59;;;8.51;100.00
48790;BME280;41718;51.980;5.734;2023-03-14T05:20:01;98704.69;;;8.43;100.00
48790;BME280;41718;51.980;5.734;2023-03-14T05:25:02;98707.22;;;8.46;100.00
48790;BME280;41718;51.980;5.734;2023-03-14T05:30:05;98717.59;;;8.42;100.00
48790;BME280;41718;51.980;5.734;2023-03-14T05:35:07;98709.88;;;8.39;100.00
48790;BME280;41718;51.980;5.734;2023-03-14T05:40:09;98703.81;;;8.43;100.00
48790;BME280;41718;51.980;5.734;2023-03-14T05:45:11;98711.59;;;8.40;100.00
48790;BME280;41718;51.980;5.734;2023-03-14T05:50:13;98707.34;;;8.33;100.00
48790;BME280;41718;51.980;5.734;2023-03-14T05:55:14;98697.88;;;8.33;100.00
48790;BME280;41718;51.980;5.734;2023-03-14T06:00:16;98706.56;;;8.26;100.00
48790;BME280;41718;51.980;5.734;2023-03-14T06:05:18;98704.81;;;8.27;100.00
48790;BME280;41718;51.980;5.734;2023-03-14T06:10:20;98705.75;;;8.22;100.00
48790;BME280;41718;51.980;5.734;2023-03-14T06:15:21;98700.53;;;8.27;100.00
48790;BME280;41718;51.980;5.734;2023-03-14T06:20:23;98698.03;;;8.22;100.00
48790;BME280;41718;51.980;5.734;2023-03-14T06:25:24;98698.88;;;8.23;100.00
48790;BME280;41718;51.980;5.734;2023-03-14T06:30:26;98701.47;;;8.20;100.00
48790;BME280;41718;51.980;5.734;2023-03-14T06:35:27;98700.63;;;8.19;100.00
48790;BME280;41718;51.980;5.734;2023-03-14T06:40:29;98697.13;;;8.25;100.00
48790;BME280;41718;51.980;5.734;2023-03-14T06:45:31;98699.66;;;8.28;100.00
48790;BME280;41718;51.980;5.734;2023-03-14T06:50:33;98703.06;;;8.32;100.00
48790;BME280;41718;51.980;5.734;2023-03-14T06:55:35;98689.31;;;8.33;100.00
48790;BME280;41718;51.980;5.734;2023-03-14T07:00:36;98715.13;;;8.27;100.00
48790;BME280;41718;51.980;5.734;2023-03-14T07:05:38;98707.34;;;8.33;100.00
48790;BME280;41718;51.980;5.734;2023-03-14T07:10:41;98720.25;;;8.31;100.00
48790;BME280;41718;51.980;5.734;2023-03-14T07:15:43;98750.38;;;8.24;100.00
48790;BME280;41718;51.980;5.734;2023-03-14T07:20:45;98781.72;;;7.69;100.00
48790;BME280;41718;51.980;5.734;2023-03-14T07:25:47;98807.63;;;7.43;100.00
48790;BME280;41718;51.980;5.734;2023-03-14T07:30:48;98833.47;;;7.17;100.00
48790;BME280;41718;51.980;5.734;2023-03-14T07:35:50;98852.38;;;7.06;100.00
48790;BME280;41718;51.980;5.734;2023-03-14T07:41:01;98873.81;;;7.00;100.00
48790;BME280;41718;51.980;5.734;2023-03-14T07:46:03;98890.97;;;6.89;100.00
48790;BME280;41718;51.980;5.734;2023-03-14T07:51:04;98901.28;;;6.78;100.00
48790;BME280;41718;51.980;5.734;2023-03-14T07:56:06;98925.25;;;6.77;100.00
48790;BME280;41718;51.980;5.734;2023-03-14T08:01:08;98937.25;;;6.66;100.00
48790;BME280;41718;51.980;5.734;2023-03-14T08:06:10;98955.25;;;6.57;100.00
48790;BME280;41718;51.980;5.734;2023-03-14T08:11:11;98963.81;;;6.53;100.00
48790;BME280;41718;51.980;5.734;2023-03-14T08:16:13;98980.06;;;6.58;100.00
48790;BME280;41718;51.980;5.734;2023-03-14T08:21:15;99001.50;;;6.54;100.00
48790;BME280;41718;51.980;5.734;2023-03-14T08:26:16;99006.63;;;6.48;100.00
48790;BME280;41718;51.980;5.734;2023-03-14T08:31:18;99030.56;;;6.41;100.00
48790;BME280;41718;51.980;5.734;2023-03-14T08:36:19;99057.09;;;6.35;100.00
48790;BME280;41718;51.980;5.734;2023-03-14T08:41:24;99079.09;;;5.84;100.00
48790;BME280;41718;51.980;5.734;2023-03-14T08:46:26;99128.44;;;5.43;100.00
48790;BME280;41718;51.980;5.734;2023-03-14T08:51:27;99148.88;;;5.32;100.00
48790;BME280;41718;51.980;5.734;2023-03-14T08:56:28;99177.19;;;5.45;100.00
48790;BME280;41718;51.980;5.734;2023-03-14T09:01:30;99188.97;;;5.27;100.00
48790;BME280;41718;51.980;5.734;2023-03-14T09:06:32;99219.78;;;5.30;100.00
48790;BME280;41718;51.980;5.734;2023-03-14T09:11:34;99242.91;;;5.35;100.00
48790;BME280;41718;51.980;5.734;2023-03-14T09:16:36;99271.81;;;5.19;100.00
48790;BME280;41718;51.980;5.734;2023-03-14T09:21:39;99285.72;;;5.42;100.00
48790;BME280;41718;51.980;5.734;2023-03-14T09:26:40;99306.41;;;5.61;100.00
48790;BME280;41718;51.980;5.734;2023-03-14T09:31:42;99321.06;;;5.72;100.00
48790;BME280;41718;51.980;5.734;2023-03-14T09:36:44;99353.53;;;5.69;100.00
48790;BME280;41718;51.980;5.734;2023-03-14T09:41:53;99373.19;;;5.70;100.00
48790;BME280;41718;51.980;5.734;2023-03-14T09:47:06;99384.44;;;5.82;100.00
48790;BME280;41718;51.980;5.734;2023-03-14T09:52:28;99414.28;;;5.73;100.00
48790;BME280;41718;51.980;5.734;2023-03-14T09:57:33;99429.50;;;5.56;100.00
48790;BME280;41718;51.980;5.734;2023-03-14T10:02:35;99443.19;;;5.56;100.00
48790;BME280;41718;51.980;5.734;2023-03-14T10:07:37;99450.34;;;5.85;100.00
48790;BME280;41718;51.980;5.734;2023-03-14T10:12:39;99471.03;;;5.97;100.00
48790;BME280;41718;51.980;5.734;2023-03-14T10:17:50;99477.28;;;6.22;100.00
48790;BME280;41718;51.980;5.734;2023-03-14T10:22:52;99496.16;;;6.26;100.00
48790;BME280;41718;51.980;5.734;2023-03-14T10:27:53;99522.44;;;6.03;100.00
48790;BME280;41718;51.980;5.734;2023-03-14T10:32:55;99533.66;;;6.11;100.00
48790;BME280;41718;51.980;5.734;2023-03-14T10:38:00;99550.25;;;6.41;100.00
48790;BME280;41718;51.980;5.734;2023-03-14T10:43:05;99575.59;;;6.94;100.00
48790;BME280;41718;51.980;5.734;2023-03-14T10:48:25;99594.72;;;6.35;100.00
48790;BME280;41718;51.980;5.734;2023-03-14T10:53:39;99619.16;;;6.04;100.00
48790;BME280;41718;51.980;5.734;2023-03-14T10:58:44;99644.38;;;5.74;100.00
48790;BME280;41718;51.980;5.734;2023-03-14T11:04:00;99664.00;;;6.32;100.00
48790;BME280;41718;51.980;5.734;2023-03-14T11:09:36;99676.16;;;6.46;100.00
48790;BME280;41718;51.980;5.734;2023-03-14T11:14:47;99688.22;;;6.51;100.00
48790;BME280;41718;51.980;5.734;2023-03-14T11:25:12;99739.16;;;5.66;100.00
48790;BME280;41718;51.980;5.734;2023-03-14T11:30:19;99773.88;;;5.94;100.00
48790;BME280;41718;51.980;5.734;2023-03-14T11:40:44;99775.84;;;6.12;100.00
48790;BME280;41718;51.980;5.734;2023-03-14T11:45:49;99783.94;;;6.38;100.00
48790;BME280;41718;51.980;5.734;2023-03-14T11:50:55;99778.69;;;6.94;100.00
48790;BME280;41718;51.980;5.734;2023-03-14T11:55:58;99794.75;;;7.49;100.00
48790;BME280;41718;51.980;5.734;2023-03-14T12:01:06;99790.78;;;7.88;100.00
48790;BME280;41718;51.980;5.734;2023-03-14T12:06:13;99791.22;;;7.41;100.00
48790;BME280;41718;51.980;5.734;2023-03-14T12:16:33;99824.72;;;7.47;100.00
48790;BME280;41718;51.980;5.734;2023-03-14T12:27:02;99841.69;;;7.30;100.00
48790;BME280;41718;51.980;5.734;2023-03-14T12:32:20;99849.47;;;7.33;100.00
48790;BME280;41718;51.980;5.734;2023-03-14T12:37:41;99862.66;;;7.63;100.00
48790;BME280;41718;51.980;5.734;2023-03-14T12:42:58;99864.44;;;7.69;100.00
48790;BME280;41718;51.980;5.734;2023-03-14T12:48:06;99859.56;;;7.17;100.00
48790;BME280;41718;51.980;5.734;2023-03-14T12:53:24;99885.00;;;7.67;100.00
48790;BME280;41718;51.980;5.734;2023-03-14T12:59:13;99908.63;;;7.34;100.00
48790;BME280;41718;51.980;5.734;2023-03-14T13:04:15;99908.19;;;7.67;100.00
48790;BME280;41718;51.980;5.734;2023-03-14T13:14:31;99939.44;;;7.31;100.00
48790;BME280;41718;51.980;5.734;2023-03-14T13:19:38;99948.19;;;7.42;100.00
48790;BME280;41718;51.980;5.734;2023-03-14T13:24:39;99953.44;;;7.50;100.00
48790;BME280;41718;51.980;5.734;2023-03-14T13:29:41;99987.91;;;7.01;100.00
48790;BME280;41718;51.980;5.734;2023-03-14T13:34:43;100003.94;;;6.86;100.00
48790;BME280;41718;51.980;5.734;2023-03-14T13:39:49;100024.16;;;7.17;100.00
48790;BME280;41718;51.980;5.734;2023-03-14T13:44:53;100027.69;;;6.71;100.00
48790;BME280;41718;51.980;5.734;2023-03-14T13:49:55;100047.63;;;6.84;100.00
48790;BME280;41718;51.980;5.734;2023-03-14T13:55:00;100065.09;;;6.54;100.00
48790;BME280;41718;51.980;5.734;2023-03-14T14:00:06;100069.06;;;6.38;100.00
48790;BME280;41718;51.980;5.734;2023-03-14T14:05:11;100071.88;;;6.99;100.00
48790;BME280;41718;51.980;5.734;2023-03-14T14:10:14;100096.63;;;6.92;100.00
48790;BME280;41718;51.980;5.734;2023-03-14T14:15:25;100099.28;;;6.51;100.00
48790;BME280;41718;51.980;5.734;2023-03-14T14:20:38;100138.66;;;6.96;100.00
48790;BME280;41718;51.980;5.734;2023-03-14T14:25:43;100143.69;;;6.89;100.00
48790;BME280;41718;51.980;5.734;2023-03-14T14:30:44;100140.16;;;6.84;100.00
48790;BME280;41718;51.980;5.734;2023-03-14T14:35:58;100160.28;;;7.07;100.00
48790;BME280;41718;51.980;5.734;2023-03-14T14:41:02;100167.78;;;6.51;100.00
48790;BME280;41718;51.980;5.734;2023-03-14T14:46:06;100177.47;;;6.22;100.00
48790;BME280;41718;51.980;5.734;2023-03-14T14:51:09;100202.41;;;6.27;100.00
48790;BME280;41718;51.980;5.734;2023-03-14T14:56:25;100212.56;;;6.21;100.00
48790;BME280;41718;51.980;5.734;2023-03-14T15:01:35;100228.13;;;6.29;100.00
48790;BME280;41718;51.980;5.734;2023-03-14T15:06:43;100243.13;;;6.10;100.00
48790;BME280;41718;51.980;5.734;2023-03-14T15:11:48;100255.97;;;6.10;100.00
48790;BME280;41718;51.980;5.734;2023-03-14T15:16:52;100282.72;;;6.19;100.00
48790;BME280;41718;51.980;5.734;2023-03-14T15:21:57;100281.09;;;5.89;100.00
48790;BME280;41718;51.980;5.734;2023-03-14T15:26:59;100303.84;;;6.08;100.00
48790;BME280;41718;51.980;5.734;2023-03-14T15:32:01;100318.41;;;5.76;100.00
48790;BME280;41718;51.980;5.734;2023-03-14T15:37:02;100321.13;;;5.81;100.00
48790;BME280;41718;51.980;5.734;2023-03-14T15:42:08;100338.81;;;5.72;100.00
48790;BME280;41718;51.980;5.734;2023-03-14T15:47:10;100344.97;;;5.78;100.00
48790;BME280;41718;51.980;5.734;2023-03-14T15:52:12;100363.88;;;5.80;100.00
48790;BME280;41718;51.980;5.734;2023-03-14T15:57:14;100366.31;;;5.76;100.00
48790;BME280;41718;51.980;5.734;2023-03-14T16:02:16;100381.47;;;5.67;100.00
48790;BME280;41718;51.980;5.734;2023-03-14T16:07:17;100388.13;;;5.60;100.00
48790;BME280;41718;51.980;5.734;2023-03-14T16:12:19;100407.63;;;5.53;100.00
48790;BME280;41718;51.980;5.734;2023-03-14T16:17:21;100404.78;;;5.44;100.00
48790;BME280;41718;51.980;5.734;2023-03-14T16:22:22;100425.97;;;5.37;100.00
48790;BME280;41718;51.980;5.734;2023-03-14T16:27:24;100441.97;;;5.28;100.00
48790;BME280;41718;51.980;5.734;2023-03-14T16:32:29;100442.56;;;5.20;100.00
48790;BME280;41718;51.980;5.734;2023-03-14T16:37:30;100459.56;;;5.16;100.00
48790;BME280;41718;51.980;5.734;2023-03-14T16:42:32;100471.41;;;5.13;100.00
48790;BME280;41718;51.980;5.734;2023-03-14T16:47:34;100472.94;;;5.08;100.00
48790;BME280;41718;51.980;5.734;2023-03-14T16:52:36;100487.44;;;5.05;100.00
48790;BME280;41718;51.980;5.734;2023-03-14T16:57:39;100498.44;;;5.03;100.00
48790;BME280;41718;51.980;5.734;2023-03-14T17:02:41;100516.41;;;5.04;100.00
48790;BME280;41718;51.980;5.734;2023-03-14T17:07:42;100522.38;;;5.03;100.00
48790;BME280;41718;51.980;5.734;2023-03-14T17:12:46;100531.72;;;5.01;100.00
48790;BME280;41718;51.980;5.734;2023-03-14T17:17:48;100544.34;;;4.95;100.00
48790;BME280;41718;51.980;5.734;2023-03-14T17:22:49;100551.88;;;4.91;100.00
48790;BME280;41718;51.980;5.734;2023-03-14T17:27:51;100558.50;;;4.84;100.00
48790;BME280;41718;51.980;5.734;2023-03-14T17:32:57;100570.16;;;4.76;100.00
48790;BME280;41718;51.980;5.734;2023-03-14T17:37:59;100588.00;;;4.73;100.00
48790;BME280;41718;51.980;5.734;2023-03-14T17:43:01;100597.88;;;4.62;100.00
48790;BME280;41718;51.980;5.734;2023-03-14T17:48:02;100609.63;;;4.56;100.00
48790;BME280;41718;51.980;5.734;2023-03-14T17:53:05;100604.13;;;4.45;100.00
48790;BME280;41718;51.980;5.734;2023-03-14T17:58:07;100623.34;;;4.34;100.00
48790;BME280;41718;51.980;5.734;2023-03-14T18:03:08;100641.09;;;4.29;100.00
48790;BME280;41718;51.980;5.734;2023-03-14T18:08:13;100641.28;;;4.11;100.00
48790;BME280;41718;51.980;5.734;2023-03-14T18:13:15;100649.44;;;4.01;100.00
48790;BME280;41718;51.980;5.734;2023-03-14T18:18:16;100654.31;;;3.95;100.00
48790;BME280;41718;51.980;5.734;2023-03-14T18:23:20;100670.03;;;3.82;100.00
48790;BME280;41718;51.980;5.734;2023-03-14T18:28:22;100682.97;;;3.64;100.00
48790;BME280;41718;51.980;5.734;2023-03-14T18:33:23;100693.00;;;3.59;100.00
48790;BME280;41718;51.980;5.734;2023-03-14T18:38:31;100701.25;;;3.52;100.00
48790;BME280;41718;51.980;5.734;2023-03-14T18:43:33;100713.91;;;3.49;100.00
48790;BME280;41718;51.980;5.734;2023-03-14T18:48:35;100730.28;;;3.33;100.00
48790;BME280;41718;51.980;5.734;2023-03-14T18:53:43;100733.09;;;3.39;100.00
48790;BME280;41718;51.980;5.734;2023-03-14T18:58:45;100736.09;;;3.29;100.00
48790;BME280;41718;51.980;5.734;2023-03-14T19:03:47;100751.59;;;3.13;100.00
48790;BME280;41718;51.980;5.734;2023-03-14T19:08:49;100764.56;;;2.98;100.00
48790;BME280;41718;51.980;5.734;2023-03-14T19:13:51;100755.97;;;2.96;100.00
48790;BME280;41718;51.980;5.734;2023-03-14T19:18:55;100762.72;;;2.76;100.00
48790;BME280;41718;51.980;5.734;2023-03-14T19:23:58;100769.91;;;2.65;100.00
48790;BME280;41718;51.980;5.734;2023-03-14T19:29:01;100769.72;;;2.61;100.00
48790;BME280;41718;51.980;5.734;2023-03-14T19:34:08;100770.81;;;2.48;100.00
48790;BME280;41718;51.980;5.734;2023-03-14T19:39:11;100783.53;;;2.47;100.00
48790;BME280;41718;51.980;5.734;2023-03-14T19:44:14;100773.41;;;2.30;100.00
48790;BME280;41718;51.980;5.734;2023-03-14T19:49:21;100783.09;;;2.20;100.00
48790;BME280;41718;51.980;5.734;2023-03-14T19:54:24;100782.41;;;2.04;100.00
48790;BME280;41718;51.980;5.734;2023-03-14T19:59:29;100789.59;;;2.13;100.00
48790;BME280;41718;51.980;5.734;2023-03-14T20:04:32;100795.28;;;2.07;100.00
48790;BME280;41718;51.980;5.734;2023-03-14T20:09:38;100796.16;;;1.90;100.00
48790;BME280;41718;51.980;5.734;2023-03-14T20:14:53;100810.94;;;1.97;100.00
48790;BME280;41718;51.980;5.734;2023-03-14T20:19:56;100824.56;;;1.98;100.00
48790;BME280;41718;51.980;5.734;2023-03-14T20:25:13;100828.22;;;2.03;100.00
48790;BME280;41718;51.980;5.734;2023-03-14T20:30:20;100836.75;;;2.03;100.00
48790;BME280;41718;51.980;5.734;2023-03-14T20:35:22;100840.25;;;2.05;100.00
48790;BME280;41718;51.980;5.734;2023-03-14T20:40:38;100836.16;;;2.09;100.00
48790;BME280;41718;51.980;5.734;2023-03-14T20:45:51;100844.41;;;2.21;100.00
48790;BME280;41718;51.980;5.734;2023-03-14T20:50:53;100865.34;;;2.32;100.00
48790;BME280;41718;51.980;5.734;2023-03-14T20:55:56;100863.66;;;2.32;100.00
48790;BME280;41718;51.980;5.734;2023-03-14T21:01:04;100878.78;;;2.28;100.00
48790;BME280;41718;51.980;5.734;2023-03-14T21:06:23;100876.81;;;2.40;100.00
48790;BME280;41718;51.980;5.734;2023-03-14T21:11:28;100886.84;;;2.55;100.00
48790;BME280;41718;51.980;5.734;2023-03-14T21:16:33;100894.81;;;2.79;100.00
48790;BME280;41718;51.980;5.734;2023-03-14T21:21:34;100896.50;;;2.78;100.00
48790;BME280;41718;51.980;5.734;2023-03-14T21:26:36;100901.00;;;2.66;100.00
48790;BME280;41718;51.980;5.734;2023-03-14T21:31:37;100903.97;;;2.56;100.00
48790;BME280;41718;51.980;5.734;2023-03-14T21:36:49;100888.94;;;2.44;100.00
48790;BME280;41718;51.980;5.734;2023-03-14T21:41:52;100906.97;;;2.31;100.00
48790;BME280;41718;51.980;5.734;2023-03-14T21:46:56;100903.56;;;2.30;100.00
48790;BME280;41718;51.980;5.734;2023-03-14T21:51:58;100886.91;;;2.21;100.00
48790;BME280;41718;51.980;5.734;2023-03-14T21:57:01;100887.84;;;2.05;100.00
48790;BME280;41718;51.980;5.734;2023-03-14T22:02:05;100893.84;;;2.05;100.00
48790;BME280;41718;51.980;5.734;2023-03-14T22:07:10;100905.72;;;2.05;100.00
48790;BME280;41718;51.980;5.734;2023-03-14T22:12:19;100909.75;;;2.18;100.00
48790;BME280;41718;51.980;5.734;2023-03-14T22:17:22;100911.34;;;2.16;100.00
48790;BME280;41718;51.980;5.734;2023-03-14T22:22:24;100912.03;;;1.95;100.00
48790;BME280;41718;51.980;5.734;2023-03-14T22:27:26;100920.38;;;1.93;100.00
48790;BME280;41718;51.980;5.734;2023-03-14T22:32:29;100928.13;;;1.94;100.00
48790;BME280;41718;51.980;5.734;2023-03-14T22:37:33;100922.38;;;1.98;100.00
48790;BME280;41718;51.980;5.734;2023-03-14T22:42:41;100940.38;;;2.01;100.00
48790;BME280;41718;51.980;5.734;2023-03-14T22:47:50;100943.56;;;1.97;100.00
48790;BME280;41718;51.980;5.734;2023-03-14T22:52:53;100969.81;;;1.95;100.00
48790;BME280;41718;51.980;5.734;2023-03-14T22:57:55;100977.53;;;1.96;100.00
48790;BME280;41718;51.980;5.734;2023-03-14T23:02:59;100989.81;;;1.87;100.00
48790;BME280;41718;51.980;5.734;2023-03-14T23:08:01;100997.72;;;1.59;100.00
48790;BME280;41718;51.980;5.734;2023-03-14T23:13:03;101015.53;;;1.43;100.00
48790;BME280;41718;51.980;5.734;2023-03-14T23:18:10;101009.09;;;1.49;100.00
48790;BME280;41718;51.980;5.734;2023-03-14T23:23:19;101013.13;;;1.46;100.00
48790;BME280;41718;51.980;5.734;2023-03-14T23:28:26;101025.81;;;1.44;100.00
48790;BME280;41718;51.980;5.734;2023-03-14T23:33:29;101029.56;;;1.51;100.00
48790;BME280;41718;51.980;5.734;2023-03-14T23:38:32;101036.94;;;1.46;100.00
48790;BME280;41718;51.980;5.734;2023-03-14T23:43:34;101046.41;;;1.32;100.00
48790;BME280;41718;51.980;5.734;2023-03-14T23:48:36;101067.31;;;1.12;100.00
48790;BME280;41718;51.980;5.734;2023-03-14T23:53:38;101064.56;;;0.63;100.00
48790;BME280;41718;51.980;5.734;2023-03-14T23:58:45;101059.19;;;0.59;100.00
